createdAt,value
2022-09-01T00:25:02.554Z,52.5
2022-09-01T00:40:04.889Z,52.5
2022-09-01T01:10:05.607Z,52.5
2022-09-01T01:25:05.448Z,52.5
2022-09-01T01:40:02.447Z,52.5
2022-09-01T01:55:03.749Z,52.5
2022-09-01T02:10:02.835Z,52.5
2022-09-01T02:40:02.567Z,52.5
2022-09-01T03:10:03.555Z,52.5
2022-09-01T03:40:06.416Z,52.5
2022-09-01T04:10:04.359Z,52.5
2022-09-01T04:30:03.477Z,52.5
2022-09-01T05:00:03.384Z,52.5
2022-09-01T05:15:05.453Z,52.5
2022-09-01T05:30:05.863Z,52.5
2022-09-01T05:45:04.672Z,52.5
2022-09-01T06:00:06.772Z,52
2022-09-01T06:15:02.578Z,52
2022-09-01T06:30:04.383Z,52
2022-09-01T06:45:06.539Z,52
2022-09-01T07:00:03.961Z,52
2022-09-01T07:30:05.691Z,52
2022-09-01T07:45:06.496Z,52
2022-09-01T08:00:02.824Z,51.5
2022-09-01T08:15:04.514Z,51
2022-09-01T08:45:06.474Z,51
2022-09-01T09:00:05.742Z,51
2022-09-01T09:15:02.461Z,51.5
2022-09-01T09:30:04.600Z,51.5
2022-09-01T10:00:05.350Z,51.5
2022-09-01T10:30:06.614Z,51.5
2022-09-01T10:50:03.705Z,51.5
2022-09-01T11:05:04.667Z,51.5
2022-09-01T11:20:06.731Z,51.5
2022-09-01T11:35:05.418Z,51.5
2022-09-01T12:05:02.601Z,51.5
2022-09-01T12:20:02.731Z,51.5
2022-09-01T12:50:02.608Z,51.5
2022-09-01T13:05:05.892Z,51.5
2022-09-01T13:20:05.802Z,51
2022-09-01T13:35:03.689Z,51
2022-09-01T13:50:03.845Z,50.5
2022-09-01T14:05:02.539Z,50.5
2022-09-01T14:20:03.677Z,50
2022-09-01T14:35:03.697Z,49.5
2022-09-01T14:50:03.885Z,49.5
2022-09-01T15:05:05.483Z,49
2022-09-01T15:20:06.378Z,49
2022-09-01T15:35:04.778Z,48.5
2022-09-01T15:50:04.351Z,48
2022-09-01T16:20:06.611Z,50
2022-09-01T16:35:04.832Z,50
2022-09-01T16:55:05.644Z,50.5
2022-09-01T17:10:06.610Z,51
2022-09-01T17:25:06.328Z,51
2022-09-01T17:45:03.834Z,51
2022-09-01T18:00:05.413Z,51
2022-09-01T18:15:06.370Z,51
2022-09-01T18:30:02.697Z,51
2022-09-01T19:00:03.659Z,51
2022-09-01T19:15:03.651Z,51.5
2022-09-01T19:30:02.799Z,51.5
2022-09-01T19:45:06.443Z,51.5
2022-09-01T20:00:02.901Z,51.5
2022-09-01T20:20:02.364Z,51.5
2022-09-01T20:50:06.366Z,51.5
2022-09-01T21:05:05.646Z,52
2022-09-01T21:35:02.357Z,51.5
2022-09-01T21:50:04.693Z,51.5
2022-09-01T22:05:05.903Z,51.5
2022-09-01T22:35:02.455Z,52
2022-09-01T23:05:02.862Z,52
2022-09-01T23:20:04.444Z,52
2022-09-01T23:35:05.402Z,52
2022-09-01T23:55:05.618Z,52
